Corky — WDC3366 — position and weather

sailwx.info

Track history (hours):
 
Tides and Currents Weather Stations Pressure Air Temp Water Temp Dewpoint Dewpoint Depression Visibility Wind Speed Wind Dir Waves Ship Positions

Corky

Owner: Gulf South Marine Transportation, Inc., New Orleans, LA. More information available from US FCC via Universal Licensing System and Coast Guard Vessel Documentation Center.

Last reported at 2018-Jan-19 03:36 UTC. Time now 2018-Jan-20 23:15 UTC.
Position N 30°02' W 093°44'.

Length 18 m; draft 3.3 m.

Type: Tow > 200 m length. MMSI: 367006780.

Date/timePositionNaut miles runAvg speedWind from/ knotsBaromVisibWave heightAir tempDewpointWater temp
2018-Jan-19 03:36N 30°02' W 093°44'1 5.3
2018-Jan-19 03:29N 30°03' W 093°44'2 4.7
2018-Jan-19 02:59N 30°04' W 093°41'2 4.8
2018-Jan-19 02:30N 30°04' W 093°38'2 5.1
2018-Jan-19 02:00N 30°04' W 093°36'1 2.7
2018-Jan-19 01:30N 30°04' W 093°34'1 1.7
2018-Jan-19 01:00N 30°04' W 093°33'1 2.2
2018-Jan-19 00:30N 30°04' W 093°32'3 5.3
2018-Jan-19 00:00N 30°04' W 093°29'3 5.4
2018-Jan-18 23:30N 30°04' W 093°26'3 5.4
2018-Jan-18 23:00N 30°04' W 093°23'2 3.9
2018-Jan-18 22:30N 30°04' W 093°20'1 2.9
2018-Jan-18 22:00N 30°06' W 093°19'2 3.0
2018-Jan-18 21:30N 30°05' W 093°18'1 1.8
2018-Jan-18 21:00N 30°05' W 093°17'0 0.2
2018-Jan-18 20:30N 30°05' W 093°17'0 0.1
2018-Jan-18 20:00N 30°05' W 093°17'0 0.0
2018-Jan-18 19:30N 30°05' W 093°17'0 0.3
2018-Jan-18 19:00N 30°05' W 093°17'1 2.0
2018-Jan-18 18:30N 30°04' W 093°16'2 3.4
2018-Jan-18 18:00N 30°02' W 093°15'2 5.0
2018-Jan-18 17:30N 30°00' W 093°14'3 5.4
2018-Jan-18 17:00N 29°58' W 093°12'3 5.5
2018-Jan-18 16:30N 29°56' W 093°10'2 3.5
2018-Jan-18 16:00N 29°56' W 093°08'3 5.6
2018-Jan-18 15:30N 29°56' W 093°04'4 0.6
2018-Jan-18 09:53N 29°56' W 093°00'1 2.9
2018-Jan-18 09:29N 29°56' W 093°02'1 2.4
2018-Jan-18 08:59N 29°56' W 093°03'1 1.5
2018-Jan-18 08:29N 29°56' W 093°04'1 2.0
2018-Jan-18 08:00N 29°56' W 093°05'1 2.7
2018-Jan-18 07:30N 29°56' W 093°06'1 2.4
2018-Jan-18 07:00N 29°56' W 093°08'1 3.0
2018-Jan-18 06:30N 29°56' W 093°10'1 2.0
2018-Jan-18 06:00N 29°57' W 093°10'0 0.4
2018-Jan-18 05:30N 29°57' W 093°10'1 3.0
2018-Jan-18 05:00N 29°58' W 093°12'1 2.7
2018-Jan-18 04:30N 29°59' W 093°13'2 3.0
2018-Jan-18 04:00N 30°00' W 093°14'1 2.8
2018-Jan-18 03:29N 30°02' W 093°14'1 1.5
2018-Jan-18 03:00N 30°02' W 093°15'1 1.5
2018-Jan-18 02:30N 30°03' W 093°16'2 3.0
2018-Jan-18 02:00N 30°04' W 093°16'2 3.3
2018-Jan-18 01:30N 30°05' W 093°18'1 1.4
2018-Jan-18 01:00N 30°06' W 093°18'0 0.3
2018-Jan-18 00:00N 30°06' W 093°18'0 0.9
2018-Jan-17 23:57N 30°06' W 093°18'  
2018-Jan-12 02:40N 29°34' W 090°56'1 4.2
2018-Jan-12 02:27N 29°34' W 090°55'2 4.3
2018-Jan-12 02:00N 29°33' W 090°53'2 4.0
2018-Jan-12 01:25N 29°32' W 090°51'2 3.9
2018-Jan-12 01:00N 29°32' W 090°49'2 4.2
2018-Jan-12 00:30N 29°32' W 090°46'2 4.0
2018-Jan-12 00:00N 29°34' W 090°45'2 3.7
2018-Jan-11 23:30N 29°35' W 090°43'2 3.7
2018-Jan-11 23:00N 29°36' W 090°43'1 1.6
2018-Jan-11 22:30N 29°37' W 090°42'1 1.6
2018-Jan-11 22:00N 29°36' W 090°41'2 3.9
2018-Jan-11 21:27N 29°36' W 090°39'2 4.2
2018-Jan-11 21:00N 29°35' W 090°37'2 4.1
2018-Jan-11 20:29N 29°34' W 090°35'  
Track history (hours):
 
Tides and Currents Weather Stations Pressure Air Temp Water Temp Dewpoint Dewpoint Depression Visibility Wind Speed Wind Dir Waves Ship Positions

Corky

Owner: Gulf South Marine Transportation, Inc., New Orleans, LA. More information available from US FCC via Universal Licensing System and Coast Guard Vessel Documentation Center.

Last reported at 2018-Jan-19 03:36 UTC. Time now 2018-Jan-20 23:15 UTC.
Position N 30°02' W 093°44'.

Length 18 m; draft 3.3 m.

Type: Tow > 200 m length. MMSI: 367006780.

Date/timePositionNaut miles runAvg speedWind from/ knotsBaromVisibWave heightAir tempDewpointWater temp
2018-Jan-19 03:36N 30°02' W 093°44'1 5.3
2018-Jan-19 03:29N 30°03' W 093°44'2 4.7
2018-Jan-19 02:59N 30°04' W 093°41'2 4.8
2018-Jan-19 02:30N 30°04' W 093°38'2 5.1
2018-Jan-19 02:00N 30°04' W 093°36'1 2.7
2018-Jan-19 01:30N 30°04' W 093°34'1 1.7
2018-Jan-19 01:00N 30°04' W 093°33'1 2.2
2018-Jan-19 00:30N 30°04' W 093°32'3 5.3
2018-Jan-19 00:00N 30°04' W 093°29'3 5.4
2018-Jan-18 23:30N 30°04' W 093°26'3 5.4
2018-Jan-18 23:00N 30°04' W 093°23'2 3.9
2018-Jan-18 22:30N 30°04' W 093°20'1 2.9
2018-Jan-18 22:00N 30°06' W 093°19'2 3.0
2018-Jan-18 21:30N 30°05' W 093°18'1 1.8
2018-Jan-18 21:00N 30°05' W 093°17'0 0.2
2018-Jan-18 20:30N 30°05' W 093°17'0 0.1
2018-Jan-18 20:00N 30°05' W 093°17'0 0.0
2018-Jan-18 19:30N 30°05' W 093°17'0 0.3
2018-Jan-18 19:00N 30°05' W 093°17'1 2.0
2018-Jan-18 18:30N 30°04' W 093°16'2 3.4
2018-Jan-18 18:00N 30°02' W 093°15'2 5.0
2018-Jan-18 17:30N 30°00' W 093°14'3 5.4
2018-Jan-18 17:00N 29°58' W 093°12'3 5.5
2018-Jan-18 16:30N 29°56' W 093°10'2 3.5
2018-Jan-18 16:00N 29°56' W 093°08'3 5.6
2018-Jan-18 15:30N 29°56' W 093°04'4 0.6
2018-Jan-18 09:53N 29°56' W 093°00'1 2.9
2018-Jan-18 09:29N 29°56' W 093°02'1 2.4
2018-Jan-18 08:59N 29°56' W 093°03'1 1.5
2018-Jan-18 08:29N 29°56' W 093°04'1 2.0
2018-Jan-18 08:00N 29°56' W 093°05'1 2.7
2018-Jan-18 07:30N 29°56' W 093°06'1 2.4
2018-Jan-18 07:00N 29°56' W 093°08'1 3.0
2018-Jan-18 06:30N 29°56' W 093°10'1 2.0
2018-Jan-18 06:00N 29°57' W 093°10'0 0.4
2018-Jan-18 05:30N 29°57' W 093°10'1 3.0
2018-Jan-18 05:00N 29°58' W 093°12'1 2.7
2018-Jan-18 04:30N 29°59' W 093°13'2 3.0
2018-Jan-18 04:00N 30°00' W 093°14'1 2.8
2018-Jan-18 03:29N 30°02' W 093°14'1 1.5
2018-Jan-18 03:00N 30°02' W 093°15'1 1.5
2018-Jan-18 02:30N 30°03' W 093°16'2 3.0
2018-Jan-18 02:00N 30°04' W 093°16'2 3.3
2018-Jan-18 01:30N 30°05' W 093°18'1 1.4
2018-Jan-18 01:00N 30°06' W 093°18'0 0.3
2018-Jan-18 00:00N 30°06' W 093°18'0 0.9
2018-Jan-17 23:57N 30°06' W 093°18'  
2018-Jan-12 02:40N 29°34' W 090°56'1 4.2
2018-Jan-12 02:27N 29°34' W 090°55'2 4.3
2018-Jan-12 02:00N 29°33' W 090°53'2 4.0
2018-Jan-12 01:25N 29°32' W 090°51'2 3.9
2018-Jan-12 01:00N 29°32' W 090°49'2 4.2
2018-Jan-12 00:30N 29°32' W 090°46'2 4.0
2018-Jan-12 00:00N 29°34' W 090°45'2 3.7
2018-Jan-11 23:30N 29°35' W 090°43'2 3.7
2018-Jan-11 23:00N 29°36' W 090°43'1 1.6
2018-Jan-11 22:30N 29°37' W 090°42'1 1.6
2018-Jan-11 22:00N 29°36' W 090°41'2 3.9
2018-Jan-11 21:27N 29°36' W 090°39'2 4.2
2018-Jan-11 21:00N 29°35' W 090°37'2 4.1
2018-Jan-11 20:29N 29°34' W 090°35'  

Dump ship's entire track history